createdAt,value
2022-08-26T00:00:11.329Z,0.00
2022-08-26T00:01:11.544Z,0.00
2022-08-26T00:02:26.305Z,0.00
2022-08-26T00:03:17.490Z,0.00
2022-08-26T00:04:15.685Z,0.00
2022-08-26T00:05:09.104Z,0.00
2022-08-26T00:06:08.794Z,0.00
2022-08-26T00:07:22.354Z,0.00
2022-08-26T00:08:13.568Z,0.00
2022-08-26T00:09:11.783Z,0.00
2022-08-26T00:10:09.140Z,0.00
2022-08-26T00:11:07.991Z,0.00
2022-08-26T00:12:12.652Z,0.00
2022-08-26T00:13:12.673Z,0.00
2022-08-26T00:14:18.105Z,0.00
2022-08-26T00:15:07.997Z,0.00
2022-08-26T00:16:10.186Z,0.00
2022-08-26T00:17:08.790Z,0.00
2022-08-26T00:18:22.073Z,0.00
2022-08-26T00:19:09.839Z,0.00
2022-08-26T00:20:11.244Z,0.00
2022-08-26T00:21:15.226Z,0.00
2022-08-26T00:22:11.366Z,0.00
2022-08-26T00:23:16.407Z,0.00
2022-08-26T00:24:08.079Z,0.00
2022-08-26T00:25:07.852Z,0.00
2022-08-26T00:26:08.421Z,0.00
2022-08-26T00:27:07.830Z,0.00
2022-08-26T00:28:07.782Z,0.00
2022-08-26T00:29:07.768Z,0.00
2022-08-26T00:30:07.783Z,0.00
2022-08-26T00:31:07.700Z,0.00
2022-08-26T00:32:07.762Z,0.00
2022-08-26T00:33:07.987Z,0.00
2022-08-26T00:34:09.598Z,0.00
2022-08-26T00:35:09.602Z,0.00
2022-08-26T00:36:07.812Z,0.00
2022-08-26T00:37:11.647Z,0.00
2022-08-26T00:38:11.191Z,0.00
2022-08-26T00:39:11.062Z,0.00
2022-08-26T00:40:16.865Z,0.00
2022-08-26T00:41:09.127Z,0.00
2022-08-26T00:42:32.275Z,0.00
2022-08-26T00:43:18.546Z,0.00
2022-08-26T00:44:08.833Z,0.00
2022-08-26T00:45:11.644Z,0.00
2022-08-26T00:46:07.744Z,0.00
2022-08-26T00:47:07.551Z,0.00
2022-08-26T00:48:07.512Z,0.00
2022-08-26T00:49:12.189Z,0.00
2022-08-26T00:50:08.466Z,0.00
2022-08-26T00:51:07.473Z,0.00
2022-08-26T00:52:09.779Z,0.00
2022-08-26T00:53:07.904Z,0.00
2022-08-26T00:54:07.602Z,0.00
2022-08-26T00:55:07.408Z,0.00
2022-08-26T00:56:07.409Z,0.00
2022-08-26T00:57:08.590Z,0.00
2022-08-26T00:58:08.452Z,0.00
2022-08-26T00:59:07.453Z,0.00
2022-08-26T01:00:07.404Z,0.00
2022-08-26T01:01:07.639Z,0.00
2022-08-26T01:02:07.345Z,0.00
2022-08-26T01:03:12.625Z,0.00
2022-08-26T01:04:07.313Z,0.00
2022-08-26T01:05:07.278Z,0.00
2022-08-26T01:06:12.574Z,0.00
2022-08-26T01:07:09.836Z,0.00
2022-08-26T01:08:07.699Z,0.00
2022-08-26T01:09:07.267Z,0.00
2022-08-26T01:10:07.241Z,0.00
2022-08-26T01:11:07.198Z,0.00
2022-08-26T01:12:07.328Z,0.00
2022-08-26T01:13:07.341Z,0.00
2022-08-26T01:14:07.200Z,0.00
2022-08-26T01:15:07.249Z,0.00
2022-08-26T01:16:07.160Z,0.00
2022-08-26T01:17:07.616Z,0.00
2022-08-26T01:18:08.343Z,0.00
2022-08-26T01:19:07.127Z,0.00
2022-08-26T01:20:07.088Z,0.00
2022-08-26T01:21:07.112Z,0.00
2022-08-26T01:22:07.180Z,0.00
2022-08-26T01:23:08.717Z,0.00
2022-08-26T01:24:07.031Z,0.00
2022-08-26T01:25:07.012Z,0.00
2022-08-26T01:26:07.040Z,0.00
2022-08-26T01:27:08.104Z,0.00
2022-08-26T01:28:07.890Z,0.00
2022-08-26T01:29:07.003Z,0.00
2022-08-26T01:30:07.022Z,0.00
2022-08-26T01:31:06.946Z,0.00
2022-08-26T01:32:06.943Z,0.00
2022-08-26T01:33:07.045Z,0.00
2022-08-26T01:34:06.914Z,0.00
2022-08-26T01:35:06.920Z,0.00
2022-08-26T01:36:06.894Z,0.00
2022-08-26T01:37:06.945Z,0.00
2022-08-26T01:38:06.874Z,0.00
2022-08-26T01:39:07.373Z,0.00
2022-08-26T01:40:06.868Z,0.00
2022-08-26T01:41:16.125Z,0.00
2022-08-26T01:42:10.342Z,0.00
2022-08-26T01:43:06.878Z,0.00
2022-08-26T01:44:06.766Z,0.00
2022-08-26T01:45:06.816Z,0.00
2022-08-26T01:46:06.804Z,0.00
2022-08-26T01:47:06.730Z,0.00
2022-08-26T01:48:07.512Z,0.00
2022-08-26T01:49:06.737Z,0.00
2022-08-26T01:50:06.691Z,0.00
2022-08-26T01:51:06.683Z,0.00
2022-08-26T01:52:06.720Z,0.00
2022-08-26T01:53:07.043Z,0.00
2022-08-26T01:54:06.641Z,0.00
2022-08-26T01:55:06.620Z,0.00
2022-08-26T01:56:06.629Z,0.00
2022-08-26T01:57:06.820Z,0.00
2022-08-26T01:58:06.618Z,0.00
2022-08-26T01:59:06.580Z,0.00
2022-08-26T02:00:06.622Z,0.00
2022-08-26T02:01:06.587Z,0.00
2022-08-26T02:02:06.533Z,0.00
2022-08-26T02:03:06.628Z,0.00
2022-08-26T02:04:06.577Z,0.00
2022-08-26T02:05:06.560Z,0.00
2022-08-26T02:06:06.487Z,0.00
2022-08-26T02:07:06.495Z,0.00
2022-08-26T02:08:06.615Z,0.00
2022-08-26T02:09:06.437Z,0.00
2022-08-26T02:10:06.446Z,0.00
2022-08-26T02:11:06.487Z,0.00
2022-08-26T02:12:06.407Z,0.00
2022-08-26T02:13:06.625Z,0.00
2022-08-26T02:14:06.839Z,0.00
2022-08-26T02:15:06.357Z,0.00
2022-08-26T02:16:06.409Z,0.00
2022-08-26T02:17:06.449Z,0.00
2022-08-26T02:18:06.437Z,0.00
2022-08-26T02:19:06.332Z,0.00
2022-08-26T02:20:06.340Z,0.00
2022-08-26T02:21:07.331Z,0.00
2022-08-26T02:22:06.428Z,0.00
2022-08-26T02:23:06.583Z,0.00
2022-08-26T02:24:06.259Z,0.00
2022-08-26T02:25:06.248Z,0.00
2022-08-26T02:26:06.242Z,0.00
2022-08-26T02:27:06.204Z,0.00
2022-08-26T02:28:07.687Z,0.00
2022-08-26T02:29:07.572Z,0.00
2022-08-26T02:30:07.059Z,0.00
2022-08-26T02:31:06.499Z,0.00
2022-08-26T02:32:06.183Z,0.00
2022-08-26T02:33:06.310Z,0.00
2022-08-26T02:34:06.174Z,0.00
2022-08-26T02:35:06.217Z,0.00
2022-08-26T02:36:06.203Z,0.00
2022-08-26T02:37:06.205Z,0.00
2022-08-26T02:38:09.933Z,0.00
2022-08-26T02:39:07.090Z,0.00
2022-08-26T02:40:06.444Z,0.00
2022-08-26T02:41:06.058Z,0.00
2022-08-26T02:42:06.019Z,0.00
2022-08-26T02:43:08.470Z,0.00
2022-08-26T02:44:06.366Z,0.00
2022-08-26T02:45:06.241Z,0.00
2022-08-26T02:46:05.966Z,0.00
2022-08-26T02:47:05.982Z,0.00
2022-08-26T02:48:06.871Z,0.00
2022-08-26T02:49:05.939Z,0.00
2022-08-26T02:50:05.919Z,0.00
2022-08-26T02:51:05.914Z,0.00
2022-08-26T02:52:05.932Z,0.00
2022-08-26T02:53:07.917Z,0.00
2022-08-26T02:54:06.843Z,0.00
2022-08-26T02:55:05.860Z,0.00
2022-08-26T02:56:07.119Z,0.00
2022-08-26T02:57:05.844Z,0.00
2022-08-26T02:58:06.651Z,0.00
2022-08-26T02:59:05.868Z,0.00
2022-08-26T03:00:05.805Z,0.00
2022-08-26T03:01:05.890Z,0.00
2022-08-26T03:02:05.774Z,0.00
2022-08-26T03:03:05.774Z,0.00
2022-08-26T03:04:05.755Z,0.00
2022-08-26T03:05:05.743Z,0.00
2022-08-26T03:06:05.746Z,0.00
2022-08-26T03:07:05.723Z,0.00
2022-08-26T03:08:05.707Z,0.00
2022-08-26T03:09:05.776Z,0.00
2022-08-26T03:10:08.243Z,0.00
2022-08-26T03:11:05.679Z,0.00
2022-08-26T03:12:05.624Z,0.00
2022-08-26T03:13:06.844Z,0.00
2022-08-26T03:14:05.662Z,0.00
2022-08-26T03:15:17.518Z,0.00
2022-08-26T03:16:06.625Z,0.00
2022-08-26T03:17:05.653Z,0.00
2022-08-26T03:18:05.648Z,0.00
2022-08-26T03:19:05.561Z,0.00
2022-08-26T03:20:05.576Z,0.00
2022-08-26T03:21:06.769Z,0.00
2022-08-26T03:22:05.515Z,0.00
2022-08-26T03:23:05.496Z,0.00
2022-08-26T03:24:05.488Z,0.00
2022-08-26T03:25:05.480Z,0.00
2022-08-26T03:26:05.490Z,0.00
2022-08-26T03:27:05.779Z,0.00
2022-08-26T03:28:05.450Z,0.00
2022-08-26T03:29:05.479Z,0.00
2022-08-26T03:30:05.400Z,0.00
2022-08-26T03:31:05.497Z,0.00
2022-08-26T03:32:05.559Z,0.00
2022-08-26T03:33:05.420Z,0.00
2022-08-26T03:34:05.394Z,0.00
2022-08-26T03:35:05.326Z,0.00
2022-08-26T03:36:05.333Z,0.00
2022-08-26T03:37:05.293Z,0.00
2022-08-26T03:38:05.295Z,0.00
2022-08-26T03:39:05.308Z,0.00
2022-08-26T03:40:05.385Z,0.00
2022-08-26T03:41:05.384Z,4.00
2022-08-26T03:42:05.264Z,4.00
2022-08-26T03:43:05.227Z,0.00
2022-08-26T03:44:05.259Z,0.00
2022-08-26T03:45:05.237Z,4.00
2022-08-26T03:46:06.544Z,4.00
2022-08-26T03:47:05.230Z,4.00
2022-08-26T03:48:05.164Z,4.00
2022-08-26T03:49:05.237Z,8.00
2022-08-26T03:50:05.187Z,8.00
2022-08-26T03:51:05.244Z,8.00
2022-08-26T03:52:05.138Z,12.00
2022-08-26T03:53:07.283Z,8.00
2022-08-26T03:54:05.179Z,16.00
2022-08-26T03:55:05.201Z,16.00
2022-08-26T03:56:05.072Z,20.00
2022-08-26T03:57:07.011Z,24.00
2022-08-26T03:58:06.491Z,24.00
2022-08-26T03:59:07.647Z,28.00
2022-08-26T04:00:06.100Z,32.00
2022-08-26T04:01:05.002Z,36.00
2022-08-26T04:02:11.304Z,40.00
2022-08-26T04:03:06.117Z,48.00
2022-08-26T04:04:04.954Z,56.00
2022-08-26T04:05:04.961Z,64.00
2022-08-26T04:06:04.996Z,72.00
2022-08-26T04:07:04.963Z,80.00
2022-08-26T04:08:06.366Z,92.00
2022-08-26T04:09:04.884Z,104.00
2022-08-26T04:10:04.937Z,116.00
2022-08-26T04:11:04.884Z,128.00
2022-08-26T04:12:04.928Z,148.00
2022-08-26T04:13:05.017Z,160.00
2022-08-26T04:14:04.835Z,180.00
2022-08-26T04:15:04.875Z,196.00
2022-08-26T04:16:06.814Z,220.00
2022-08-26T04:17:04.799Z,244.00
2022-08-26T04:18:04.988Z,264.00
2022-08-26T04:19:04.755Z,288.00
2022-08-26T04:20:04.748Z,312.00
2022-08-26T04:21:04.728Z,340.00
2022-08-26T04:22:04.740Z,368.00
2022-08-26T04:23:04.780Z,400.00
2022-08-26T04:24:04.803Z,432.00
2022-08-26T04:25:04.711Z,468.00
2022-08-26T04:26:04.715Z,504.00
2022-08-26T04:27:04.683Z,544.00
2022-08-26T04:28:05.460Z,588.00
2022-08-26T04:29:04.621Z,632.00
2022-08-26T04:30:05.780Z,680.00
2022-08-26T04:31:04.631Z,728.00
2022-08-26T04:32:04.655Z,772.00
2022-08-26T04:33:12.017Z,824.00
2022-08-26T04:34:05.628Z,868.00
2022-08-26T04:35:04.692Z,916.00
2022-08-26T04:36:04.642Z,968.00
2022-08-26T04:37:04.589Z,1020.00
2022-08-26T04:38:05.795Z,1068.00
2022-08-26T04:39:04.514Z,1112.00
2022-08-26T04:40:04.585Z,1148.00
2022-08-26T04:41:05.452Z,1176.00
2022-08-26T04:42:04.516Z,1204.00
2022-08-26T04:43:04.535Z,1228.00
2022-08-26T04:44:04.588Z,1248.00
2022-08-26T04:45:05.773Z,1276.00
2022-08-26T04:46:05.482Z,1308.00
2022-08-26T04:47:04.435Z,1340.00
2022-08-26T04:48:05.592Z,1388.00
2022-08-26T04:49:05.377Z,1436.00
2022-08-26T04:50:04.383Z,1500.00
2022-08-26T04:51:04.350Z,1556.00
2022-08-26T04:52:04.380Z,1612.00
2022-08-26T04:53:04.384Z,1660.00
2022-08-26T04:54:04.370Z,1708.00
2022-08-26T04:55:04.299Z,1768.00
2022-08-26T04:56:04.382Z,1828.00
2022-08-26T04:57:04.299Z,1892.00
2022-08-26T04:58:04.339Z,1960.00
2022-08-26T04:59:04.258Z,2028.00
2022-08-26T05:00:04.228Z,2096.00
2022-08-26T05:01:04.236Z,2168.00
2022-08-26T05:02:04.275Z,2244.00
2022-08-26T05:03:04.303Z,2316.00
2022-08-26T05:04:05.128Z,2388.00
2022-08-26T05:05:04.625Z,2468.00
2022-08-26T05:06:04.204Z,2528.00
2022-08-26T05:07:04.154Z,2584.00
2022-08-26T05:08:04.175Z,2624.00
2022-08-26T05:09:04.133Z,2660.00
2022-08-26T05:10:04.134Z,2700.00
2022-08-26T05:11:04.105Z,2752.00
2022-08-26T05:12:04.101Z,2808.00
2022-08-26T05:13:04.179Z,2860.00
2022-08-26T05:14:05.083Z,2896.00
2022-08-26T05:15:04.042Z,2932.00
2022-08-26T05:16:04.152Z,2972.00
2022-08-26T05:17:04.018Z,3020.00
2022-08-26T05:18:04.169Z,3076.00
2022-08-26T05:19:04.010Z,3132.00
2022-08-26T05:20:04.031Z,3180.00
2022-08-26T05:21:04.980Z,3232.00
2022-08-26T05:22:03.985Z,3272.00
2022-08-26T05:23:04.379Z,3316.00
2022-08-26T05:24:05.200Z,3360.00
2022-08-26T05:25:05.004Z,3396.00
2022-08-26T05:26:05.013Z,3436.00
2022-08-26T05:27:03.914Z,3476.00
2022-08-26T05:28:05.008Z,3516.00
2022-08-26T05:29:04.711Z,3556.00
2022-08-26T05:30:03.891Z,3596.00
2022-08-26T05:31:05.102Z,3640.00
2022-08-26T05:32:04.945Z,3688.00
2022-08-26T05:33:03.936Z,3732.00
2022-08-26T05:34:03.916Z,3776.00
2022-08-26T05:35:04.371Z,3820.00
2022-08-26T05:36:03.799Z,3856.00
2022-08-26T05:37:03.790Z,3888.00
2022-08-26T05:38:04.455Z,3924.00
2022-08-26T05:39:03.851Z,3968.00
2022-08-26T05:40:04.055Z,4016.00
2022-08-26T05:41:03.758Z,4060.00
2022-08-26T05:42:04.496Z,4104.00
2022-08-26T05:43:03.674Z,4144.00
2022-08-26T05:44:03.655Z,4192.00
2022-08-26T05:45:03.706Z,4244.00
2022-08-26T05:46:03.746Z,4296.00
2022-08-26T05:47:03.708Z,4344.00
2022-08-26T05:48:04.432Z,4392.00
2022-08-26T05:49:03.664Z,4432.00
2022-08-26T05:50:03.709Z,4464.00
2022-08-26T05:51:03.755Z,4492.00
2022-08-26T05:52:03.960Z,4516.00
2022-08-26T05:53:03.742Z,4552.00
2022-08-26T05:54:04.368Z,4588.00
2022-08-26T05:55:04.379Z,4636.00
2022-08-26T05:56:03.638Z,4684.00
2022-08-26T05:57:04.590Z,4744.00
2022-08-26T05:58:03.644Z,4808.00
2022-08-26T05:59:04.942Z,4868.00
2022-08-26T06:00:04.549Z,4924.00
2022-08-26T06:01:05.350Z,4968.00
2022-08-26T06:02:03.653Z,5008.00
2022-08-26T06:03:04.671Z,5036.00
2022-08-26T06:04:03.744Z,5068.00
2022-08-26T06:05:03.628Z,5096.00
2022-08-26T06:06:03.377Z,5116.00
2022-08-26T06:07:03.392Z,5140.00
2022-08-26T06:08:03.441Z,5156.00
2022-08-26T06:09:04.343Z,5168.00
2022-08-26T06:10:28.687Z,5184.00
2022-08-26T06:11:04.322Z,5196.00
2022-08-26T06:12:03.390Z,5220.00
2022-08-26T06:13:11.923Z,5252.00
2022-08-26T06:14:04.431Z,5292.00
2022-08-26T06:15:04.025Z,5340.00
2022-08-26T06:16:03.384Z,5388.00
2022-08-26T06:17:03.292Z,5432.00
2022-08-26T06:18:03.255Z,5480.00
2022-08-26T06:19:03.437Z,5512.00
2022-08-26T06:20:04.189Z,5536.00
2022-08-26T06:21:03.218Z,5560.00
2022-08-26T06:22:04.240Z,5580.00
2022-08-26T06:23:03.446Z,5600.00
2022-08-26T06:24:03.261Z,5616.00
2022-08-26T06:25:04.233Z,5632.00
2022-08-26T06:26:07.259Z,5656.00
2022-08-26T06:27:04.112Z,5680.00
2022-08-26T06:28:03.191Z,5696.00
2022-08-26T06:29:03.068Z,5708.00
2022-08-26T06:30:03.057Z,5716.00
2022-08-26T06:31:03.101Z,5732.00
2022-08-26T06:32:03.053Z,5752.00
2022-08-26T06:33:03.066Z,5784.00
2022-08-26T06:34:06.173Z,5824.00
2022-08-26T06:35:04.006Z,5856.00
2022-08-26T06:36:02.999Z,5892.00
2022-08-26T06:37:04.964Z,5916.00
2022-08-26T06:38:03.025Z,5964.00
2022-08-26T06:39:05.640Z,5992.00
2022-08-26T06:40:19.138Z,6032.00
2022-08-26T06:41:07.260Z,6068.00
2022-08-26T06:42:03.255Z,6104.00
2022-08-26T06:43:02.935Z,6148.00
2022-08-26T06:44:03.032Z,6180.00
2022-08-26T06:45:02.935Z,6224.00
2022-08-26T06:46:04.285Z,6284.00
2022-08-26T06:47:03.068Z,6348.00
2022-08-26T06:48:02.869Z,6424.00
2022-08-26T06:49:03.028Z,6480.00
2022-08-26T06:50:02.851Z,6528.00
2022-08-26T06:51:02.845Z,6596.00
2022-08-26T06:52:03.519Z,6680.00
2022-08-26T06:53:04.664Z,6804.00
2022-08-26T06:54:03.560Z,7032.00
2022-08-26T06:55:02.826Z,7344.00
2022-08-26T06:56:26.511Z,7772.00
2022-08-26T06:57:06.667Z,8368.00
2022-08-26T06:58:04.779Z,8940.00
2022-08-26T06:59:05.161Z,9192.00
2022-08-26T07:00:06.859Z,9252.00
2022-08-26T07:01:11.264Z,9236.00
2022-08-26T07:02:05.820Z,9144.00
2022-08-26T07:03:15.785Z,8944.00
2022-08-26T07:04:05.490Z,8572.00
2022-08-26T07:05:03.644Z,8164.00
2022-08-26T07:06:02.697Z,7772.00
2022-08-26T07:07:02.591Z,7748.00
2022-08-26T07:08:02.631Z,7892.00
2022-08-26T07:09:03.381Z,8044.00
2022-08-26T07:10:02.591Z,7908.00
2022-08-26T07:11:02.579Z,7704.00
2022-08-26T07:12:02.573Z,7520.00
2022-08-26T07:13:03.071Z,7376.00
2022-08-26T07:14:02.506Z,7288.00
2022-08-26T07:15:02.573Z,7276.00
2022-08-26T07:16:06.156Z,7328.00
2022-08-26T07:17:13.717Z,7452.00
2022-08-26T07:18:05.753Z,7648.00
2022-08-26T07:19:03.429Z,7896.00
2022-08-26T07:20:03.438Z,8184.00
2022-08-26T07:21:06.876Z,8488.00
2022-08-26T07:22:13.653Z,8752.00
2022-08-26T07:23:02.568Z,8976.00
2022-08-26T07:24:02.428Z,9152.00
2022-08-26T07:25:02.376Z,9308.00
2022-08-26T07:26:03.232Z,9440.00
2022-08-26T07:27:02.776Z,9568.00
2022-08-26T07:28:02.481Z,9720.00
2022-08-26T07:29:02.646Z,9864.00
2022-08-26T07:30:02.332Z,10024.00
2022-08-26T07:31:02.327Z,10200.00
2022-08-26T07:32:02.524Z,10396.00
2022-08-26T07:33:02.466Z,10584.00
2022-08-26T07:34:03.175Z,10692.00
2022-08-26T07:35:05.552Z,10724.00
2022-08-26T07:36:04.277Z,10812.00
2022-08-26T07:37:06.301Z,10948.00
2022-08-26T07:38:07.568Z,11152.00
2022-08-26T07:39:02.782Z,11432.00
2022-08-26T07:40:03.371Z,11772.00
2022-08-26T07:41:04.756Z,12136.00
2022-08-26T07:42:07.680Z,12508.00
2022-08-26T07:43:03.597Z,12884.00
2022-08-26T07:44:02.102Z,13236.00
2022-08-26T07:45:02.168Z,13560.00
2022-08-26T07:46:03.349Z,13776.00
2022-08-26T07:47:02.440Z,13832.00
2022-08-26T07:48:02.068Z,13744.00
2022-08-26T07:49:02.136Z,13504.00
2022-08-26T07:50:02.957Z,13228.00
2022-08-26T07:51:02.865Z,13000.00
2022-08-26T07:52:02.432Z,12868.00
2022-08-26T07:53:07.463Z,12808.00
2022-08-26T07:54:04.042Z,12884.00
2022-08-26T07:55:07.730Z,12960.00
2022-08-26T07:56:01.973Z,13084.00
2022-08-26T07:57:08.297Z,13204.00
2022-08-26T07:58:04.770Z,13276.00
2022-08-26T07:59:26.025Z,13196.00
2022-08-26T08:00:08.213Z,12864.00
2022-08-26T08:01:01.946Z,12208.00
2022-08-26T08:02:02.006Z,11620.00
2022-08-26T08:03:01.959Z,11104.00
2022-08-26T08:04:01.888Z,10692.00
2022-08-26T08:05:01.909Z,10376.00
2022-08-26T08:06:02.956Z,10176.00
2022-08-26T08:07:01.868Z,10080.00
2022-08-26T08:08:27.646Z,9952.00
2022-08-26T08:09:02.817Z,9696.00
2022-08-26T08:10:04.566Z,9288.00
2022-08-26T08:11:01.781Z,8820.00
2022-08-26T08:12:03.423Z,8384.00
2022-08-26T08:13:02.783Z,8024.00
2022-08-26T08:14:04.797Z,7752.00
2022-08-26T08:15:06.143Z,7568.00
2022-08-26T08:16:04.225Z,7464.00
2022-08-26T08:17:01.846Z,7448.00
2022-08-26T08:18:01.841Z,7460.00
2022-08-26T08:19:01.746Z,7524.00
2022-08-26T08:20:01.689Z,7608.00
2022-08-26T08:21:21.089Z,7496.00
2022-08-26T08:22:02.652Z,7468.00
2022-08-26T08:23:02.003Z,7488.00
2022-08-26T08:24:01.593Z,7368.00
2022-08-26T08:25:01.654Z,7176.00
2022-08-26T08:26:01.627Z,7192.00
2022-08-26T08:27:01.627Z,7048.00
2022-08-26T08:28:26.890Z,6992.00
2022-08-26T08:29:13.478Z,7076.00
2022-08-26T08:30:03.132Z,7128.00
2022-08-26T08:31:06.316Z,7444.00
2022-08-26T08:32:01.722Z,7596.00
2022-08-26T08:33:02.435Z,7648.00
2022-08-26T08:34:01.978Z,7532.00
2022-08-26T08:35:02.739Z,7420.00
2022-08-26T08:36:02.433Z,7164.00
2022-08-26T08:37:03.643Z,7164.00
2022-08-26T08:38:01.615Z,7228.00
2022-08-26T08:39:02.047Z,7332.00
2022-08-26T08:40:02.918Z,7424.00
2022-08-26T08:41:02.466Z,7476.00
2022-08-26T08:42:01.613Z,7524.00
2022-08-26T08:43:01.475Z,7600.00
2022-08-26T08:44:01.595Z,7728.00
2022-08-26T08:45:01.411Z,7880.00
2022-08-26T08:46:01.462Z,8032.00
2022-08-26T08:47:01.325Z,8184.00
2022-08-26T08:48:01.968Z,8328.00
2022-08-26T08:49:01.425Z,8440.00
2022-08-26T08:50:01.270Z,8488.00
2022-08-26T08:51:01.279Z,8460.00
2022-08-26T08:52:01.420Z,8404.00
2022-08-26T08:53:01.242Z,8404.00
2022-08-26T08:54:01.316Z,8460.00
2022-08-26T08:55:01.254Z,8568.00
2022-08-26T08:56:01.360Z,8680.00
2022-08-26T08:57:03.649Z,8820.00
2022-08-26T08:58:03.280Z,9072.00
2022-08-26T08:59:01.173Z,9368.00
2022-08-26T09:00:01.232Z,9736.00
2022-08-26T09:01:02.661Z,10128.00
2022-08-26T09:02:01.346Z,10408.00
2022-08-26T09:03:02.092Z,10588.00
2022-08-26T09:04:01.181Z,10656.00
2022-08-26T09:05:01.133Z,10640.00
2022-08-26T09:06:01.115Z,10604.00
2022-08-26T09:07:01.105Z,10616.00
2022-08-26T09:08:01.095Z,10760.00
2022-08-26T09:09:07.845Z,11020.00
2022-08-26T09:10:03.811Z,11376.00
2022-08-26T09:11:04.439Z,11720.00
2022-08-26T09:12:01.017Z,11912.00
2022-08-26T09:13:01.050Z,11996.00
2022-08-26T09:14:00.953Z,12012.00
2022-08-26T09:15:00.975Z,11984.00
2022-08-26T09:16:01.085Z,11848.00
2022-08-26T09:17:01.183Z,11688.00
2022-08-26T09:18:00.974Z,11524.00
2022-08-26T09:19:01.789Z,11328.00
2022-08-26T09:20:01.111Z,11176.00
2022-08-26T09:21:00.891Z,11124.00
2022-08-26T09:22:02.157Z,11152.00
2022-08-26T09:23:01.908Z,11212.00
2022-08-26T09:24:00.969Z,11260.00
2022-08-26T09:25:00.972Z,11344.00
2022-08-26T09:26:00.852Z,11348.00
2022-08-26T09:27:01.130Z,11264.00
2022-08-26T09:28:00.806Z,11148.00
2022-08-26T09:29:00.802Z,11000.00
2022-08-26T09:30:00.769Z,10848.00
2022-08-26T09:31:02.063Z,10776.00
2022-08-26T09:32:00.876Z,10776.00
2022-08-26T09:33:00.734Z,10840.00
2022-08-26T09:34:00.735Z,11012.00
2022-08-26T09:35:02.631Z,11284.00
2022-08-26T09:36:02.569Z,11656.00
2022-08-26T09:37:00.738Z,12096.00
2022-08-26T09:38:01.809Z,12484.00
2022-08-26T09:39:00.735Z,12708.00
2022-08-26T09:40:00.757Z,12772.00
2022-08-26T09:41:01.186Z,12740.00
2022-08-26T09:42:00.602Z,12672.00
2022-08-26T09:43:00.594Z,12596.00
2022-08-26T09:44:00.622Z,12540.00
2022-08-26T09:45:00.760Z,12524.00
2022-08-26T09:46:00.587Z,12524.00
2022-08-26T09:47:00.740Z,12528.00
2022-08-26T09:48:01.351Z,12552.00
2022-08-26T09:49:00.596Z,12568.00
2022-08-26T09:50:00.557Z,12528.00
2022-08-26T09:51:00.563Z,12440.00
2022-08-26T09:52:00.467Z,12316.00
2022-08-26T09:53:00.467Z,12228.00
2022-08-26T09:54:00.463Z,12208.00
2022-08-26T09:55:00.530Z,12224.00
2022-08-26T09:56:00.521Z,12292.00
2022-08-26T09:57:01.519Z,12396.00
2022-08-26T09:58:08.735Z,12532.00
2022-08-26T09:59:01.406Z,12676.00
2022-08-26T10:00:00.425Z,12816.00
2022-08-26T10:01:01.182Z,12920.00
2022-08-26T10:03:00.426Z,12936.00
2022-08-26T10:04:00.415Z,12832.00
2022-08-26T10:05:09.158Z,12680.00
2022-08-26T10:06:01.359Z,12496.00
2022-08-26T10:07:01.740Z,12332.00
2022-08-26T10:08:00.292Z,12196.00
2022-08-26T10:09:04.519Z,12092.00
2022-08-26T10:10:01.296Z,12012.00
2022-08-26T10:11:01.718Z,11920.00
2022-08-26T10:12:01.882Z,11792.00
2022-08-26T10:13:04.639Z,11640.00
2022-08-26T10:14:00.354Z,11488.00
2022-08-26T10:15:01.803Z,11340.00
2022-08-26T10:16:06.208Z,11240.00
2022-08-26T10:17:12.450Z,11188.00
2022-08-26T10:18:00.227Z,11164.00
2022-08-26T10:19:08.830Z,11144.00
2022-08-26T10:20:03.124Z,11104.00
2022-08-26T10:21:02.023Z,11036.00
2022-08-26T10:22:01.175Z,10964.00
2022-08-26T10:23:03.742Z,10852.00
2022-08-26T10:24:03.324Z,10732.00
2022-08-26T10:25:00.966Z,10648.00
2022-08-26T10:26:00.195Z,10588.00
2022-08-26T10:27:00.055Z,10564.00
2022-08-26T10:28:00.108Z,10580.00
2022-08-26T10:29:00.065Z,10628.00
2022-08-26T10:30:00.059Z,10696.00
2022-08-26T10:31:00.004Z,10784.00
2022-08-26T10:32:03.383Z,10872.00
2022-08-26T10:32:59.963Z,10972.00
2022-08-26T10:34:00.741Z,11088.00
2022-08-26T10:35:00.046Z,11232.00
2022-08-26T10:35:59.944Z,11400.00
2022-08-26T10:37:14.242Z,11588.00
2022-08-26T10:38:00.919Z,11792.00
2022-08-26T10:38:59.934Z,12012.00
2022-08-26T10:40:01.026Z,12248.00
2022-08-26T10:40:59.875Z,12536.00
2022-08-26T10:41:59.878Z,12860.00
2022-08-26T10:42:59.977Z,13212.00
2022-08-26T10:43:59.836Z,13636.00
2022-08-26T10:44:59.886Z,14084.00
2022-08-26T10:46:00.901Z,14580.00
2022-08-26T10:46:59.787Z,15052.00
2022-08-26T10:47:59.949Z,15552.00
2022-08-26T10:49:00.099Z,15776.00
2022-08-26T10:50:03.073Z,15872.00
2022-08-26T10:50:59.798Z,15808.00
2022-08-26T10:51:59.758Z,15648.00
2022-08-26T10:53:01.771Z,15424.00
2022-08-26T10:53:59.731Z,15064.00
2022-08-26T10:55:00.349Z,14860.00
2022-08-26T10:55:59.670Z,14712.00
2022-08-26T10:56:59.689Z,14624.00
2022-08-26T10:57:59.904Z,14656.00
2022-08-26T10:59:00.930Z,14912.00
2022-08-26T11:00:09.817Z,15296.00
2022-08-26T11:01:11.224Z,15488.00
2022-08-26T11:01:59.796Z,15680.00
2022-08-26T11:02:59.649Z,15936.00
2022-08-26T11:03:59.769Z,16256.00
2022-08-26T11:05:00.722Z,16448.00
2022-08-26T11:05:59.556Z,16544.00
2022-08-26T11:06:59.532Z,16544.00
2022-08-26T11:07:59.546Z,16512.00
2022-08-26T11:08:59.694Z,16416.00
2022-08-26T11:09:59.570Z,16320.00
2022-08-26T11:10:59.634Z,16320.00
2022-08-26T11:12:01.918Z,16224.00
2022-08-26T11:13:03.364Z,16096.00
2022-08-26T11:14:07.495Z,16000.00
2022-08-26T11:14:59.724Z,16000.00
2022-08-26T11:16:01.272Z,16064.00
2022-08-26T11:17:01.362Z,16128.00
2022-08-26T11:18:00.516Z,16192.00
2022-08-26T11:19:03.843Z,16384.00
2022-08-26T11:20:13.411Z,16576.00
2022-08-26T11:20:59.444Z,16864.00
2022-08-26T11:22:00.148Z,17184.00
2022-08-26T11:23:00.508Z,17472.00
2022-08-26T11:24:01.943Z,17696.00
2022-08-26T11:25:01.072Z,17824.00
2022-08-26T11:26:36.377Z,17920.00
2022-08-26T11:27:00.372Z,18048.00
2022-08-26T11:28:01.966Z,18272.00
2022-08-26T11:29:00.307Z,18528.00
2022-08-26T11:29:59.308Z,18752.00
2022-08-26T11:31:00.688Z,18944.00
2022-08-26T11:32:00.401Z,19008.00
2022-08-26T11:33:01.084Z,18912.00
2022-08-26T11:34:02.863Z,18752.00
2022-08-26T11:35:00.527Z,18464.00
2022-08-26T11:35:59.282Z,18112.00
2022-08-26T11:37:00.115Z,17824.00
2022-08-26T11:37:59.246Z,17728.00
2022-08-26T11:39:24.549Z,17792.00
2022-08-26T11:40:00.917Z,17888.00
2022-08-26T11:41:01.017Z,18112.00
2022-08-26T11:41:59.199Z,18368.00
2022-08-26T11:43:02.564Z,18592.00
2022-08-26T11:44:00.000Z,18848.00
2022-08-26T11:45:03.482Z,19104.00
2022-08-26T11:46:02.657Z,19360.00
2022-08-26T11:47:00.672Z,19616.00
2022-08-26T11:48:03.463Z,19904.00
2022-08-26T11:48:59.728Z,20160.00
2022-08-26T11:49:59.884Z,20288.00
2022-08-26T11:50:59.797Z,20224.00
2022-08-26T11:51:59.846Z,20000.00
2022-08-26T11:53:06.121Z,19616.00
2022-08-26T11:53:59.777Z,19008.00
2022-08-26T11:55:04.150Z,18080.00
2022-08-26T11:56:00.866Z,17024.00
2022-08-26T11:56:59.695Z,15904.00
2022-08-26T11:58:05.200Z,14752.00
2022-08-26T11:59:00.327Z,13728.00
2022-08-26T11:59:59.754Z,12800.00
2022-08-26T12:01:00.608Z,12128.00
2022-08-26T12:01:59.945Z,11772.00
2022-08-26T12:02:59.439Z,11308.00
2022-08-26T12:03:59.006Z,10628.00
2022-08-26T12:04:59.976Z,9908.00
2022-08-26T12:06:00.929Z,9404.00
2022-08-26T12:07:05.123Z,9148.00
2022-08-26T12:08:01.524Z,8812.00
2022-08-26T12:09:22.857Z,8584.00
2022-08-26T12:10:04.000Z,8440.00
2022-08-26T12:11:02.357Z,8496.00
2022-08-26T12:12:02.459Z,8612.00
2022-08-26T12:13:01.119Z,8808.00
2022-08-26T12:13:59.634Z,9080.00
2022-08-26T12:14:58.770Z,9320.00
2022-08-26T12:16:01.346Z,9504.00
2022-08-26T12:16:58.673Z,9760.00
2022-08-26T12:18:07.958Z,9916.00
2022-08-26T12:18:59.707Z,10000.00
2022-08-26T12:19:59.146Z,10000.00
2022-08-26T12:21:00.506Z,10020.00
2022-08-26T12:21:58.964Z,10144.00